Latest Coastal Weather Observations for Walpole North

IDW60701

Issued at 6:12 am WST Sunday 29 March 2015 (issued every 10 minutes, with the page automatically refreshed every 10 minutes)

About coastal observations | Map of coastal stations | Coastal observations for WA | Marine services | Other Formats
Station Details ID: 009998 Name: NORTH WALPOLE Lat: -34.95 Lon: 116.72 Height: 73.0 m
Data from the previous 72 hours. | See also: Recent months at Walpole North
Date/Time
WST
Temp

°C
Wind Pressure Rain
since 9am
mm
Weather Cloud Vis
km
Sea
Height
m
Swell
Dir
 
Speed
knots
Gust
knots
hPa Trend Height
m
Period
s
Dir
29/06:00am 16.0 N 5 8 1021.3 - 1.0 - - - - - - -
29/05:30am 16.0 N 5 8 1021.3 - 1.0 - - - - - - -
29/05:00am 16.0 CALM 0 0 1021.2 - 1.0 - - - - - - -
29/04:30am 15.9 CALM 0 0 1021.0 - 1.0 - - - - - - -
29/04:00am 15.9 N 1 4 1020.7 - 1.0 - - - - - - -
29/03:30am 15.8 CALM 0 0 1020.7 - 1.0 - - - - - - -
29/03:00am 15.7 CALM 0 0 1020.8 - 1.0 - - - - - - -
29/02:30am 15.6 CALM 0 0 1020.5 - 1.0 - - - - - - -
29/02:00am 15.6 CALM 0 0 1020.4 - 1.0 - - - - - - -
29/01:30am 15.8 CALM 0 0 1020.5 - 1.0 - - - - - - -
29/01:00am 15.8 CALM 0 0 1020.8 - 1.0 - - - - - - -
29/12:30am 15.6 CALM 0 0 1020.7 - 1.0 - - - - - - -
29/12:00am 15.5 CALM 0 0 1020.8 - 1.0 - - - - - - -
 
Date/Time
WST
Temp

°C
Wind Pressure Rain
since 9am
mm
Weather Cloud Vis
km
Sea
Height
m
Swell
Dir
 
Speed
knots
Gust
knots
hPa Trend Height
m
Period
s
Dir
28/11:30pm 15.1 CALM 0 0 1020.8 - 1.0 - - - - - - -
28/11:00pm 15.7 CALM 0 0 1020.9 - 1.0 - - - - - - -
28/10:30pm 16.2 CALM 0 0 1021.1 - 1.0 - - - - - - -
28/10:00pm 16.5 CALM 0 0 1021.1 - 1.0 - - - - - - -
28/09:30pm 16.8 CALM 0 0 1021.3 - 1.0 - - - - - - -
28/09:00pm 17.1 CALM 0 0 1021.4 - 0.4 Recent precip. - - - - - -
28/08:30pm 17.4 SSW 2 5 1021.2 - 0.2 - - - - - - -
28/08:00pm 17.8 SSW 3 6 1021.0 - 0.0 - - - - - - -
28/07:30pm 17.9 SW 4 5 1020.6 - 0.0 - - - - - - -
28/07:00pm 18.2 SW 2 7 1020.2 - 0.0 - - - - - - -
28/06:30pm 18.4 SW 6 9 1019.9 - 0.0 - - - - - - -
28/06:00pm 18.9 WSW 4 6 1019.7 - 0.0 - - - - - - -
28/05:30pm 19.6 WSW 6 9 1019.5 - 0.0 - - - - - - -
28/05:00pm 20.1 WSW 7 10 1019.6 - 0.0 - - - - - - -
28/04:30pm 20.4 WSW 7 11 1019.4 - 0.0 - - - - - - -
28/04:00pm 21.0 W 7 13 1019.4 - 0.0 - - - - - - -
28/03:30pm 21.8 WSW 8 11 1019.3 - 0.0 - - - - - - -
28/03:00pm 21.4 WSW 9 15 1019.3 - 0.0 - - - - - - -
28/02:30pm 21.3 WSW 8 13 1019.3 - 0.0 - - - - - - -
28/02:00pm 23.2 WSW 8 14 1019.3 - 0.0 - - - - - - -
28/01:30pm 22.4 SW 8 14 1019.4 - 0.0 - - - - - - -
28/01:00pm 23.1 SW 7 11 1019.7 - 0.0 - - - - - - -
28/12:30pm 21.8 SW 7 11 1020.1 - 0.0 - - - - - - -
28/12:00pm 22.8 WSW 8 11 1020.3 - 0.0 - - - - - - -
28/11:30am 22.6 SW 7 12 1020.4 - 0.0 - - - - - - -
28/11:00am 21.9 SW 7 13 1020.5 - 0.0 - - - - - - -
28/10:30am 21.8 WSW 8 12 1020.5 - 0.0 - - - - - - -
28/10:00am 20.9 W 7 10 1020.5 - 0.0 - - - - - - -
28/09:30am 19.8 WNW 7 11 1020.6 - 0.0 - - - - - - -
28/09:00am 19.1 WNW 6 9 1020.6 - 0.0 - - - - - - -
28/08:30am 18.3 W 5 7 1020.5 - 0.0 - - - - - - -
28/08:00am 17.0 CALM 0 0 1020.5 - 0.0 - - - - - - -
28/07:30am 16.1 CALM 0 0 1020.4 - 0.0 - - - - - - -
28/07:00am 14.7 CALM 0 0 1020.3 - 0.0 - - - - - - -
28/06:30am 14.3 CALM 0 0 1020.3 - 0.0 - - - - - - -
28/06:00am 13.9 CALM 0 0 1020.1 - 0.0 - - - - - - -
28/05:30am 13.9 CALM 0 0 1019.9 - 0.0 - - - - - - -
28/05:00am 14.2 CALM 0 0 1019.6 - 0.0 - - - - - - -
28/04:30am 14.7 CALM 0 0 1019.4 - 0.0 - - - - - - -
28/04:00am 14.8 CALM 0 0 1019.3 - 0.0 - - - - - - -
28/03:30am 15.1 CALM 0 0 1019.2 - 0.0 - - - - - - -
28/03:00am 15.3 CALM 0 0 1019.3 - 0.0 - - - - - - -
28/02:30am 15.6 WNW 4 6 1019.2 - 0.0 - - - - - - -
28/02:00am 15.7 SW 3 5 1019.3 - 0.0 - - - - - - -
28/01:30am 15.1 CALM 0 0 1019.2 - 0.0 - - - - - - -
28/01:00am 15.0 CALM 0 0 1019.4 - 0.0 - - - - - - -
28/12:30am 15.3 CALM 0 0 1019.3 - 0.0 - - - - - - -
28/12:00am 15.3 CALM 0 0 1019.4 - 0.0 - - - - - - -
 
Date/Time
WST
Temp

°C
Wind Pressure Rain
since 9am
mm
Weather Cloud Vis
km
Sea
Height
m
Swell
Dir
 
Speed
knots
Gust
knots
hPa Trend Height
m
Period
s
Dir
27/11:30pm 15.8 CALM 0 0 1019.5 - 0.0 - - - - - - -
27/11:00pm 15.8 CALM 0 0 1019.6 - 0.0 - - - - - - -
27/10:30pm 16.1 CALM 0 0 1019.8 - 0.0 - - - - - - -
27/10:00pm 16.1 CALM 0 0 1019.8 - 0.0 - - - - - - -
27/09:30pm 16.6 CALM 0 0 1019.9 - 0.0 - - - - - - -
27/09:00pm 17.0 CALM 0 0 1019.7 - 0.0 - - - - - - -
27/08:30pm 16.8 CALM 0 0 1019.8 - 0.0 - - - - - - -
27/08:00pm 17.7 CALM 0 0 1019.8 - 0.0 - - - - - - -
27/07:30pm 18.2 SSW 1 3 1019.7 - 0.0 - - - - - - -
27/07:00pm 18.9 SSW 4 5 1019.5 - 0.0 - - - - - - -
27/06:30pm 19.3 SW 4 5 1019.2 - 0.0 - - - - - - -
27/06:00pm 20.3 SW 5 7 1018.9 - 0.0 - - - - - - -
27/05:30pm 21.6 WSW 5 8 1018.9 - 0.0 - - - - - - -
27/05:00pm 22.4 WSW 8 12 1018.7 - 0.0 - - - - - - -
27/04:30pm 23.7 WSW 7 12 1018.3 - 0.0 - - - - - - -
27/04:00pm 23.9 SW 7 11 1018.4 - 0.0 - - - - - - -
27/03:30pm 24.5 WSW 9 12 1018.4 - 0.0 - - - - - - -
27/03:00pm 25.1 SW 9 15 1018.3 - 0.0 - - - - - - -
27/02:30pm 25.6 SW 7 9 1018.2 - 0.0 - - - - - - -
27/02:00pm 25.8 WSW 7 13 1018.4 - 0.0 - - - - - - -
27/01:30pm 26.0 SSW 6 11 1018.7 - 0.0 - - - - - - -
27/01:00pm 27.0 SW 7 11 1019.0 - 0.0 - - - - - - -
27/12:30pm 25.3 WNW 5 9 1019.5 - 0.0 - - - - - - -
27/12:00pm 24.5 SE 1 5 1019.9 - 0.0 - - - - - - -
27/11:30am 23.4 W 4 7 1020.4 - 0.0 - - - - - - -
27/11:00am 23.2 NNW 6 10 1020.8 - 0.0 - - - - - - -
27/10:30am 23.2 NW 7 11 1020.9 - 0.0 - - - - - - -
27/10:00am 21.8 CALM 0 0 1020.9 - 0.0 - - - - - - -
27/09:30am 18.6 CALM 0 0 1021.1 - 0.0 - - - - - - -
27/09:00am 17.4 CALM 0 0 1021.2 - 0.2 - - - - - - -
27/08:30am 15.9 CALM 0 0 1021.4 - 0.2 - - - - - - -
27/08:00am 15.6 WNW 1 5 1021.2 - 0.2 - - - - - - -
27/07:30am 15.0 CALM 0 0 1021.3 - 0.2 - - - - - - -
27/07:00am 15.3 N 4 8 1021.4 - 0.2 - - - - - - -
27/06:30am 15.6 N 4 8 1021.1 - 0.2 - - - - - - -
27/06:00am 15.2 N 4 6 1020.9 - 0.2 - - - - - - -
27/05:30am 15.2 N 5 9 1020.9 - 0.2 - - - - - - -
27/05:00am 16.0 NNE 6 11 1020.7 - 0.2 - - - - - - -
27/04:30am 16.3 NNE 10 17 1021.0 - 0.2 - - - - - - -
27/04:00am 16.3 NNE 11 16 1021.1 - 0.2 - - - - - - -
27/03:30am 16.0 NNE 9 15 1021.2 - 0.2 - - - - - - -
27/03:00am 15.8 NNE 8 13 1021.3 - 0.2 - - - - - - -
27/02:30am 16.0 NNE 9 14 1021.6 - 0.2 - - - - - - -
27/02:00am 15.9 NNE 9 14 1022.0 - 0.2 - - - - - - -
27/01:30am 15.5 NNE 10 15 1022.3 - 0.2 - - - - - - -
27/01:00am 15.4 NNE 8 13 1022.4 - 0.2 - - - - - - -
27/12:30am 15.1 NE 8 11 1022.6 - 0.2 - - - - - - -
27/12:00am 15.4 NE 10 13 1022.6 - 0.2 - - - - - - -
 
Date/Time
WST
Temp

°C
Wind Pressure Rain
since 9am
mm
Weather Cloud Vis
km
Sea
Height
m
Swell
Dir
 
Speed
knots
Gust
knots
hPa Trend Height
m
Period
s
Dir
26/11:30pm 15.7 NE 11 17 1022.9 - 0.2 - - - - - - -
26/11:00pm 15.6 NE 10 16 1023.0 - 0.2 - - - - - - -
26/10:30pm 15.8 NE 10 16 1023.3 - 0.2 - - - - - - -
26/10:00pm 16.3 NE 10 17 1023.3 - 0.2 - - - - - - -
26/09:30pm 16.7 NE 10 15 1023.5 - 0.2 - - - - - - -
26/09:00pm 17.1 NE 9 16 1023.6 - 0.2 - - - - - - -
26/08:30pm 17.8 NE 11 16 1023.4 - 0.2 - - - - - - -
26/08:00pm 18.2 ENE 10 16 1023.1 - 0.2 - - - - - - -
26/07:30pm 18.9 ENE 9 14 1023.1 - 0.2 - - - - - - -
26/07:00pm 19.4 ENE 7 11 1022.9 - 0.2 - - - - - - -
26/06:30pm 19.8 ENE 7 10 1022.9 - 0.2 - - - - - - -
26/06:00pm 20.7 E 6 10 1022.8 - 0.2 - - - - - - -
26/05:30pm 21.4 E 7 11 1022.6 - 0.2 - - - - - - -
26/05:00pm 22.0 E 7 11 1022.4 - 0.2 - - - - - - -
26/04:30pm 22.8 ESE 8 11 1022.4 - 0.2 - - - - - - -
26/04:00pm 23.8 ESE 9 14 1022.3 - 0.2 - - - - - - -
26/03:30pm 24.3 ESE 10 14 1022.5 - 0.2 - - - - - - -
26/03:00pm 24.5 ESE 10 15 1022.6 - 0.2 - - - - - - -
26/02:30pm 25.6 NE 6 12 1022.9 - 0.2 - - - - - - -
26/02:00pm 25.7 ENE 5 8 1023.4 - 0.2 - - - - - - -
26/01:30pm 24.7 ENE 7 11 1023.8 - 0.2 - - - - - - -
26/01:00pm 24.1 ENE 7 14 1024.4 - 0.2 - - - - - - -
26/12:30pm 23.8 ENE 8 13 1024.8 - 0.2 - - - - - - -
26/12:00pm 22.7 ENE 7 14 1025.4 - 0.2 Recent precip. - - - - - -
26/11:30am 22.1 ENE 7 11 1025.7 - 0.2 - - - - - - -
26/11:00am 21.0 ENE 7 11 1026.3 - 0.0 - - - - - - -
26/10:30am 19.5 ENE 8 15 1026.7 - 0.0 - - - - - - -
26/10:00am 18.6 ENE 9 16 1027.1 - 0.0 - - - - - - -
26/09:30am 16.9 ENE 10 17 1027.5 - 0.0 - - - - - - -
26/09:00am 15.6 ENE 8 14 1027.6 - 0.0 - - - - - - -
26/08:30am 15.3 ENE 7 14 1027.9 - 0.0 - - - - - - -
26/08:00am 14.2 ENE 8 13 1028.1 - 0.0 - - - - - - -
26/07:30am 12.9 ENE 5 8 1028.2 - 0.0 - - - - - - -
26/07:00am 11.3 E 5 7 1028.1 - 0.0 - - - - - - -
26/06:30am 10.7 ENE 5 6 1027.9 - 0.0 - - - - - - -

Other Formats:

Comma delimited format used in spreadsheet applications
http://www.bom.gov.au/fwo/IDW60701/IDW60701.95647.axf

JavaScript Object Notation format (JSON) in row-major order
http://www.bom.gov.au/fwo/IDW60701/IDW60701.95647.json